Time;durP1;ratioP1;P1;durP2;ratioP2;P2;SDS_P1;SDS_P2;PMS_P1;PMS_P2;Temp;Humidity;BMP_temperature;BMP_pressure;BME280_temperature;BME280_humidity;BME280_pressure;Samples;Min_cycle;Max_cycle;Signal;HPM_P1;HPM_P2
2024/03/28 00:01:28;;;;;;;;;;;;;;;22.39;47.67;91768.59;4993696;28;7259;-60
2024/03/28 00:03:54;;;;;;;;;;;;;;;22.39;47.94;91765.13;4979384;28;9098;-60
2024/03/28 00:06:22;;;;;;;;;;;;;;;22.36;48.31;91756.00;5038094;28;7129;-61
2024/03/28 00:08:48;;;;;;;;;;;;;;;22.38;48.13;91760.91;5065691;28;7036;-60
2024/03/28 00:11:14;;;;;;;;;;;;;;;22.34;47.65;91744.88;5054166;28;7244;-57
2024/03/28 00:13:43;;;;;;;;;;;;;;;22.33;47.91;91731.75;5066796;28;7003;-57
2024/03/28 00:16:13;;;;;;;;;;;;;;;22.29;48.00;91729.38;5055780;28;7589;-57
2024/03/28 00:18:41;;;;;;;;;;;;;;;22.35;47.82;91731.91;5066309;28;7117;-57
2024/03/28 00:21:35;;;;;;;;;;;;;;;22.35;47.95;91735.38;5053922;28;7287;-62
2024/03/28 00:24:27;;;;;;;;;;;;;;;22.35;47.92;91740.13;5060836;28;7075;-62
2024/03/28 00:26:54;;;;;;;;;;;;;;;22.34;48.23;91728.44;5066584;28;7044;-62
2024/03/28 00:29:27;;;;;;;;;;;;;;;22.34;48.07;91730.44;5055423;28;7044;-62
2024/03/28 00:32:36;;;;;;;;;;;;;;;22.34;47.68;91724.97;5057401;28;9089;-62
2024/03/28 00:35:10;;;;;;;;;;;;;;;22.34;47.73;91722.22;5064809;28;7271;-63
2024/03/28 00:37:38;;;;;;;;;;;;;;;22.34;47.94;91724.97;5053403;28;7125;-62
2024/03/28 00:40:14;;;;;;;;;;;;;;;22.28;47.83;91714.22;5048846;28;7045;-62
2024/03/28 00:42:39;;;;;;;;;;;;;;;22.23;47.69;91698.00;5057833;28;7283;-62
2024/03/28 00:45:07;;;;;;;;;;;;;;;22.30;47.72;91714.41;5049504;28;7295;-62
2024/03/28 00:48:03;;;;;;;;;;;;;;;22.32;47.43;91717.31;5047478;28;9927;-62
2024/03/28 00:50:29;;;;;;;;;;;;;;;22.32;47.58;91711.09;5010327;28;7694;-62
2024/03/28 00:52:55;;;;;;;;;;;;;;;22.30;47.70;91702.72;5002709;28;7012;-62
2024/03/28 00:55:33;;;;;;;;;;;;;;;22.32;47.95;91695.41;4987875;28;9075;-62
2024/03/28 00:58:17;;;;;;;;;;;;;;;22.26;47.78;91692.16;5011415;28;7608;-62
2024/03/28 01:00:48;;;;;;;;;;;;;;;22.31;47.90;91691.22;4998019;28;7452;-62
2024/03/28 01:03:15;;;;;;;;;;;;;;;22.31;47.73;91683.03;5004558;28;7622;-62
2024/03/28 01:05:42;;;;;;;;;;;;;;;22.31;47.35;91674.06;5010040;28;7023;-62
2024/03/28 01:08:09;;;;;;;;;;;;;;;22.24;47.92;91677.56;4989541;28;9040;-62
2024/03/28 01:10:38;;;;;;;;;;;;;;;22.28;47.85;91689.59;4983481;28;7056;-62
2024/03/28 01:13:06;;;;;;;;;;;;;;;22.30;47.91;91686.28;4996492;28;9023;-63
2024/03/28 01:15:34;;;;;;;;;;;;;;;22.28;47.67;91689.59;4997824;28;9036;-62
2024/03/28 01:18:00;;;;;;;;;;;;;;;22.28;48.04;91672.44;5010114;28;7235;-62
2024/03/28 01:20:27;;;;;;;;;;;;;;;22.29;47.42;91674.59;5000598;28;9085;-62
2024/03/28 01:23:18;;;;;;;;;;;;;;;22.28;47.31;91672.44;5003649;28;7022;-63
2024/03/28 01:25:45;;;;;;;;;;;;;;;22.25;47.44;91673.56;4997289;28;9052;-63
2024/03/28 01:28:20;;;;;;;;;;;;;;;22.17;47.48;91664.63;5037987;28;7013;-63
2024/03/28 01:31:26;;;;;;;;;;;;;;;22.23;47.77;91668.59;5070370;28;7284;-72
2024/03/28 01:33:53;;;;;;;;;;;;;;;22.19;47.31;91664.78;5066788;28;7145;-62
2024/03/28 01:36:21;;;;;;;;;;;;;;;22.21;47.70;91671.19;5068047;28;7195;-63
2024/03/28 01:39:28;;;;;;;;;;;;;;;22.23;47.62;91671.34;5037055;28;9449;-63
2024/03/28 01:42:08;;;;;;;;;;;;;;;22.18;47.49;91655.88;5045434;28;7044;-62
2024/03/28 01:45:09;;;;;;;;;;;;;;;22.23;47.13;91665.88;5050998;28;7037;-62
2024/03/28 01:47:44;;;;;;;;;;;;;;;22.19;47.38;91659.31;5062581;28;7217;-63
2024/03/28 01:50:15;;;;;;;;;;;;;;;22.23;46.69;91659.66;5048954;28;7207;-63
2024/03/28 01:52:59;;;;;;;;;;;;;;;22.22;47.86;91663.69;5054754;28;9401;-63
2024/03/28 01:55:26;;;;;;;;;;;;;;;22.19;47.52;91656.56;5054027;28;9362;-62
2024/03/28 01:57:59;;;;;;;;;;;;;;;22.13;47.42;91637.63;5058090;28;8956;-62
2024/03/28 02:00:28;;;;;;;;;;;;;;;22.20;47.29;91647.09;5037338;28;9514;-63
2024/03/28 02:02:57;;;;;;;;;;;;;;;22.19;47.57;91642.91;5048884;28;8099;-62
2024/03/28 02:05:24;;;;;;;;;;;;;;;22.16;47.29;91639.25;5054587;28;7268;-62
2024/03/28 02:07:52;;;;;;;;;;;;;;;22.14;47.50;91630.88;5064297;28;7028;-57
2024/03/28 02:10:19;;;;;;;;;;;;;;;22.21;47.47;91630.09;5050776;28;7123;-57
2024/03/28 02:12:45;;;;;;;;;;;;;;;22.22;47.51;91637.06;5061821;28;9528;-57
2024/03/28 02:15:15;;;;;;;;;;;;;;;22.23;47.34;91632.28;5064230;28;8266;-57
2024/03/28 02:17:51;;;;;;;;;;;;;;;22.24;47.11;91644.69;5073337;28;7062;-57
2024/03/28 02:20:31;;;;;;;;;;;;;;;22.20;47.10;91642.34;5068043;28;6993;-57
2024/03/28 02:23:07;;;;;;;;;;;;;;;22.17;47.51;91639.97;5047624;28;7018;-57
2024/03/28 02:26:12;;;;;;;;;;;;;;;22.17;47.30;91646.19;5055694;28;8191;-57
2024/03/28 02:28:40;;;;;;;;;;;;;;;22.19;47.41;91653.84;4986349;28;6908;-57
2024/03/28 02:31:35;;;;;;;;;;;;;;;22.18;47.34;91663.34;4988503;28;9849;-57
2024/03/28 02:34:02;;;;;;;;;;;;;;;22.20;47.70;91663.53;4984737;28;9213;-57
2024/03/28 02:36:28;;;;;;;;;;;;;;;22.16;47.43;91661.16;4990586;28;8200;-57
2024/03/28 02:39:03;;;;;;;;;;;;;;;22.15;47.49;91659.72;4977064;28;7054;-57
2024/03/28 02:41:30;;;;;;;;;;;;;;;22.18;47.36;91655.88;4980507;28;9285;-57
2024/03/28 02:44:03;;;;;;;;;;;;;;;22.19;47.19;91653.84;4989379;28;9386;-57
2024/03/28 02:46:31;;;;;;;;;;;;;;;22.17;47.25;91654.41;4985867;28;7002;-57
2024/03/28 02:49:17;;;;;;;;;;;;;;;22.13;47.21;91651.31;4963968;28;9492;-57
2024/03/28 02:51:53;;;;;;;;;;;;;;;22.19;47.41;91645.63;4979096;28;7300;-57
2024/03/28 02:54:19;;;;;;;;;;;;;;;22.17;47.36;91650.94;4973786;28;7246;-57
2024/03/28 02:57:21;;;;;;;;;;;;;;;22.20;47.16;91652.56;4981708;28;9898;-57
2024/03/28 02:59:58;;;;;;;;;;;;;;;22.13;47.38;91639.63;4986911;28;7430;-57
2024/03/28 03:02:24;;;;;;;;;;;;;;;22.17;47.68;91646.19;5005068;28;7117;-57
2024/03/28 03:04:52;;;;;;;;;;;;;;;22.19;47.37;91648.38;5046820;28;7042;-57
2024/03/28 03:07:23;;;;;;;;;;;;;;;22.17;46.95;91651.66;5065952;28;8908;-57
2024/03/28 03:10:08;;;;;;;;;;;;;;;22.19;46.92;91648.38;5063763;28;7238;-57
2024/03/28 03:12:38;;;;;;;;;;;;;;;22.12;47.33;91638.91;5049695;28;9510;-57
2024/03/28 03:15:13;;;;;;;;;;;;;;;22.16;47.28;91644.00;5050803;28;7091;-57
2024/03/28 03:17:40;;;;;;;;;;;;;;;22.17;47.37;91634.50;5049141;28;7364;-58
2024/03/28 03:20:13;;;;;;;;;;;;;;;22.17;47.10;91612.59;5064447;28;7039;-57
2024/03/28 03:23:04;;;;;;;;;;;;;;;22.14;47.13;91617.19;5074110;28;7033;-57
2024/03/28 03:26:00;;;;;;;;;;;;;;;22.19;46.88;91610.78;5071352;28;7120;-57
2024/03/28 03:34:43;;;;;;;;;;;;;;;22.18;47.34;91606.59;5057415;28;9466;-57
2024/03/28 03:37:14;;;;;;;;;;;;;;;22.15;46.97;91587.81;5070144;28;7012;-57
2024/03/28 03:40:17;;;;;;;;;;;;;;;22.19;46.83;91604.56;5076879;28;7277;-57
2024/03/28 03:42:52;;;;;;;;;;;;;;;22.18;47.01;91597.66;4999841;28;7071;-57
2024/03/28 03:45:23;;;;;;;;;;;;;;;22.19;46.92;91593.63;5014562;28;8339;-57
2024/03/28 03:48:09;;;;;;;;;;;;;;;22.19;46.99;91590.88;5003666;28;7082;-57
2024/03/28 03:50:35;;;;;;;;;;;;;;;22.10;46.81;91577.78;5005466;28;6959;-57
2024/03/28 03:53:01;;;;;;;;;;;;;;;22.16;47.16;91570.81;5015587;28;7112;-64
2024/03/28 03:55:42;;;;;;;;;;;;;;;22.20;47.27;91578.66;4998263;28;7114;-63
2024/03/28 03:58:29;;;;;;;;;;;;;;;22.17;46.99;91569.53;4986293;28;7068;-64
2024/03/28 04:01:12;;;;;;;;;;;;;;;22.20;46.33;91551.28;5000319;28;7042;-64
2024/03/28 04:03:40;;;;;;;;;;;;;;;22.13;47.14;91541.09;5002034;28;7404;-64
2024/03/28 04:06:06;;;;;;;;;;;;;;;22.22;47.31;91538.50;4990238;28;7018;-64
2024/03/28 04:08:32;;;;;;;;;;;;;;;22.23;47.15;91536.47;4996756;28;7029;-64
2024/03/28 04:11:03;;;;;;;;;;;;;;;22.23;47.12;91533.72;4992489;28;9406;-63
2024/03/28 04:13:39;;;;;;;;;;;;;;;22.26;47.04;91527.16;4996994;28;7028;-64
2024/03/28 04:16:16;;;;;;;;;;;;;;;22.19;47.07;91504.00;5024032;28;7021;-63
2024/03/28 04:19:08;;;;;;;;;;;;;;;22.29;46.88;91523.31;5064047;28;8944;-64
2024/03/28 04:21:51;;;;;;;;;;;;;;;22.30;46.62;91514.53;5067502;28;8235;-64
2024/03/28 04:24:20;;;;;;;;;;;;;;;22.31;46.97;91512.53;5076822;28;7090;-64
2024/03/28 04:26:56;;;;;;;;;;;;;;;22.28;46.82;91497.19;5074778;28;7118;-64
2024/03/28 04:29:25;;;;;;;;;;;;;;;22.34;46.61;91523.06;5076192;28;7677;-64
2024/03/28 04:31:51;;;;;;;;;;;;;;;22.33;46.33;91518.16;5063876;28;9093;-64
2024/03/28 04:34:24;;;;;;;;;;;;;;;22.29;46.59;91517.84;5056456;28;7173;-64
2024/03/28 04:37:27;;;;;;;;;;;;;;;22.35;47.02;91518.34;5060658;28;7041;-65
2024/03/28 04:39:54;;;;;;;;;;;;;;;22.35;46.48;91510.13;5055858;28;9312;-65
2024/03/28 04:42:32;;;;;;;;;;;;;;;22.32;46.80;91519.44;5054288;28;6963;-65
2024/03/28 04:45:45;;;;;;;;;;;;;;;22.37;46.63;91535.66;5066504;28;6996;-64
2024/03/28 04:48:29;;;;;;;;;;;;;;;22.37;46.84;91540.41;4970280;28;7254;-65
2024/03/28 04:51:16;;;;;;;;;;;;;;;22.37;46.95;91537.66;4962555;28;9163;-65
2024/03/28 04:53:43;;;;;;;;;;;;;;;22.38;46.77;91544.59;4948998;28;7935;-66
2024/03/28 04:56:08;;;;;;;;;;;;;;;22.36;46.83;91547.16;4971573;28;7232;-65
2024/03/28 04:58:34;;;;;;;;;;;;;;;22.36;46.85;91555.38;4954979;28;7029;-65
2024/03/28 05:01:05;;;;;;;;;;;;;;;22.22;46.86;91543.97;4971871;28;7141;-63
2024/03/28 05:03:34;;;;;;;;;;;;;;;22.30;47.05;91563.81;4956976;28;9043;-63
2024/03/28 05:05:59;;;;;;;;;;;;;;;22.34;46.88;91579.84;4966247;28;7080;-63
2024/03/28 05:08:25;;;;;;;;;;;;;;;22.35;46.95;91598.47;4955513;28;7085;-63
2024/03/28 05:10:54;;;;;;;;;;;;;;;22.36;47.10;91599.91;4964219;28;8800;-63
2024/03/28 05:13:32;;;;;;;;;;;;;;;22.37;47.16;91590.44;4960070;28;7036;-63
2024/03/28 05:16:44;;;;;;;;;;;;;;;22.37;46.60;91586.97;4955793;28;7334;-63
2024/03/28 05:19:39;;;;;;;;;;;;;;;22.35;47.02;91567.63;4868587;29;7069;-63
2024/03/28 05:22:19;;;;;;;;;;;;;;;22.29;46.59;91537.00;4842705;29;6978;-65
2024/03/28 05:25:15;;;;;;;;;;;;;;;22.37;46.68;91534.94;4893365;29;8096;-67
2024/03/28 05:27:42;;;;;;;;;;;;;;;22.38;48.76;91539.09;4943970;28;9340;-71
2024/03/28 05:30:27;;;;;;;;;;;;;;;22.60;51.01;91532.06;4940278;28;7022;-71
2024/03/28 05:32:55;;;;;;;;;;;;;;;22.96;57.85;91554.25;4946902;28;9058;-70
2024/03/28 05:35:26;;;;;;;;;;;;;;;23.37;57.71;91541.81;4931770;28;9050;-70
2024/03/28 05:38:00;;;;;;;;;;;;;;;23.71;55.83;91520.59;4917524;29;7291;-69
2024/03/28 05:40:27;;;;;;;;;;;;;;;23.98;55.03;91520.63;4929664;28;8523;-65
2024/03/28 05:42:56;;;;;;;;;;;;;;;24.15;53.23;91514.38;4931472;28;7034;-69
2024/03/28 05:46:14;;;;;;;;;;;;;;;24.31;53.44;91510.16;4929812;28;7042;-69
2024/03/28 05:48:52;;;;;;;;;;;;;;;24.39;50.11;91522.47;4915848;29;9455;-67
2024/03/28 05:51:49;;;;;;;;;;;;;;;24.49;46.20;91556.22;4899266;29;7028;-68
2024/03/28 05:54:16;;;;;;;;;;;;;;;24.51;46.45;91563.91;4912866;29;7025;-63
2024/03/28 05:56:43;;;;;;;;;;;;;;;24.12;45.61;91554.69;4943006;28;7819;-64
2024/03/28 05:59:18;;;;;;;;;;;;;;;23.47;45.83;91537.16;4967857;28;8607;-64
2024/03/28 06:01:53;;;;;;;;;;;;;;;23.31;46.54;91511.16;4969392;28;7030;-59
2024/03/28 06:04:19;;;;;;;;;;;;;;;23.17;47.09;91510.72;4968966;28;8597;-59
2024/03/28 06:06:45;;;;;;;;;;;;;;;23.05;47.33;91524.16;4967540;28;9122;-59
2024/03/28 06:09:11;;;;;;;;;;;;;;;23.00;46.25;91519.66;4966733;28;7172;-58
2024/03/28 06:11:37;;;;;;;;;;;;;;;22.88;45.47;91509.75;4970971;28;9079;-58
2024/03/28 06:14:10;;;;;;;;;;;;;;;22.80;46.06;91520.75;4971039;28;9192;-58
2024/03/28 06:16:36;;;;;;;;;;;;;;;22.70;47.04;91508.97;4962663;28;7117;-58
2024/03/28 06:19:03;;;;;;;;;;;;;;;22.80;47.31;91520.75;4965593;28;7002;-58
2024/03/28 06:21:31;;;;;;;;;;;;;;;22.98;54.87;91544.19;4966731;28;7008;-59
2024/03/28 06:24:00;;;;;;;;;;;;;;;23.37;56.53;91550.78;4954947;28;6932;-59
2024/03/28 06:26:33;;;;;;;;;;;;;;;23.73;56.60;91539.22;5063566;28;7079;-58
2024/03/28 06:29:00;;;;;;;;;;;;;;;23.96;56.28;91536.94;5065073;28;8558;-58
2024/03/28 06:31:40;;;;;;;;;;;;;;;24.15;51.90;91526.09;5039460;28;7215;-60
2024/03/28 06:34:06;;;;;;;;;;;;;;;24.29;50.36;91524.47;5064796;28;7491;-60
2024/03/28 06:37:01;;;;;;;;;;;;;;;24.40;46.54;91534.19;5043465;28;7220;-59
2024/03/28 06:39:49;;;;;;;;;;;;;;;24.43;45.76;91564.00;5024275;28;7311;-59
2024/03/28 06:42:35;;;;;;;;;;;;;;;24.04;44.69;91583.50;5006444;28;8601;-59
2024/03/28 06:45:14;;;;;;;;;;;;;;;23.44;46.65;91620.56;5011314;28;6990;-58
2024/03/28 06:48:12;;;;;;;;;;;;;;;23.12;46.87;91652.22;5015766;28;7027;-58
2024/03/28 06:50:40;;;;;;;;;;;;;;;22.94;47.04;91639.78;4996876;28;7049;-58
2024/03/28 06:53:06;;;;;;;;;;;;;;;22.90;47.60;91669.56;5007970;28;7674;-58
2024/03/28 06:56:01;;;;;;;;;;;;;;;22.84;47.96;91660.09;5015844;28;8999;-58
2024/03/28 06:58:40;;;;;;;;;;;;;;;22.75;47.42;91672.41;4965987;28;7147;-58
2024/03/28 07:01:08;;;;;;;;;;;;;;;22.77;48.12;91674.59;4957253;28;7038;-57
2024/03/28 07:03:36;;;;;;;;;;;;;;;22.68;48.12;91670.44;4955774;28;7021;-58
2024/03/28 07:06:02;;;;;;;;;;;;;;;22.68;48.15;91702.59;4940268;28;7382;-58
2024/03/28 07:08:31;;;;;;;;;;;;;;;22.73;48.34;91726.31;4961685;28;7482;-58
2024/03/28 07:10:59;;;;;;;;;;;;;;;22.70;48.46;91750.06;4952456;28;7047;-68
2024/03/28 07:13:25;;;;;;;;;;;;;;;22.55;47.93;91750.09;4953299;29;9260;-69
2024/03/28 07:15:55;;;;;;;;;;;;;;;22.59;48.58;91783.34;4952682;29;7176;-68
2024/03/28 07:18:47;;;;;;;;;;;;;;;22.63;48.58;91805.63;4944915;29;6992;-69
2024/03/28 07:21:22;;;;;;;;;;;;;;;22.62;48.55;91814.41;4937745;29;7039;-71
2024/03/28 07:23:51;;;;;;;;;;;;;;;22.59;48.54;91813.50;4947571;28;7430;-71
2024/03/28 07:26:29;;;;;;;;;;;;;;;22.65;48.49;91835.94;4973029;28;9432;-70
2024/03/28 07:28:55;;;;;;;;;;;;;;;22.63;48.59;91852.19;4971649;28;7642;-71
2024/03/28 07:31:21;;;;;;;;;;;;;;;22.57;48.60;91857.13;4971129;28;8039;-70
2024/03/28 07:33:53;;;;;;;;;;;;;;;22.59;48.65;91871.00;4970699;28;6991;-70
2024/03/28 07:36:19;;;;;;;;;;;;;;;22.64;48.54;91902.25;5034162;28;7068;-70
2024/03/28 07:38:45;;;;;;;;;;;;;;;22.60;48.67;91932.72;5026193;28;7594;-70
2024/03/28 07:41:18;;;;;;;;;;;;;;;22.59;48.54;91953.19;5047018;28;9468;-71
2024/03/28 07:43:45;;;;;;;;;;;;;;;22.57;48.68;91974.16;5035343;28;7644;-71
2024/03/28 07:46:20;;;;;;;;;;;;;;;22.59;48.49;91983.34;5050040;28;8992;-76
2024/03/28 07:48:48;;;;;;;;;;;;;;;22.59;47.78;91986.06;5032092;28;7240;-67
2024/03/28 07:51:15;;;;;;;;;;;;;;;22.58;48.05;91983.84;5031045;28;9028;-66
2024/03/28 07:53:44;;;;;;;;;;;;;;;22.55;47.66;91972.00;5045320;28;8987;-68
2024/03/28 07:56:11;;;;;;;;;;;;;;;22.50;47.67;92022.94;5030460;28;7047;-67
2024/03/28 07:58:46;;;;;;;;;;;;;;;22.51;48.17;92037.34;5033461;28;9026;-67
2024/03/28 08:01:16;;;;;;;;;;;;;;;22.50;48.66;92064.03;5030484;28;7308;-68
2024/03/28 08:03:42;;;;;;;;;;;;;;;22.54;48.01;92088.31;5046236;28;8933;-69
2024/03/28 08:06:08;;;;;;;;;;;;;;;22.47;48.19;92103.44;5037594;28;7038;-68
2024/03/28 08:08:37;;;;;;;;;;;;;;;22.48;48.27;92104.91;5044268;28;9236;-69
2024/03/28 08:11:06;;;;;;;;;;;;;;;22.50;48.03;92105.09;5049969;28;9086;-68
2024/03/28 08:13:33;;;;;;;;;;;;;;;22.51;47.88;92105.81;5066839;28;7617;-68
2024/03/28 08:16:06;;;;;;;;;;;;;;;22.51;47.94;92101.06;5048192;28;7040;-67
2024/03/28 08:18:37;;;;;;;;;;;;;;;22.54;47.99;92123.91;5057248;28;9126;-74
2024/03/28 08:21:04;;;;;;;;;;;;;;;22.56;47.96;92115.88;5047434;28;7061;-56
2024/03/28 08:23:33;;;;;;;;;;;;;;;22.56;47.91;92112.41;5066407;28;8721;-56
2024/03/28 08:25:59;;;;;;;;;;;;;;;22.56;47.99;92126.84;5065412;28;7058;-56
2024/03/28 08:28:33;;;;;;;;;;;;;;;22.49;48.40;92111.13;5058003;28;6995;-56
2024/03/28 08:31:06;;;;;;;;;;;;;;;22.49;48.37;92111.84;5069719;28;9231;-56
2024/03/28 08:33:58;;;;;;;;;;;;;;;22.53;48.40;92114.25;5065437;28;7064;-56
2024/03/28 08:36:35;;;;;;;;;;;;;;;22.42;48.08;92109.09;5065718;28;6980;-56
2024/03/28 08:39:05;;;;;;;;;;;;;;;22.52;48.81;92126.47;5069008;28;7306;-57
2024/03/28 08:41:38;;;;;;;;;;;;;;;22.53;48.16;92128.66;5049660;28;7840;-58
2024/03/28 08:44:04;;;;;;;;;;;;;;;22.51;48.46;92131.22;5047077;28;7023;-58
2024/03/28 08:46:29;;;;;;;;;;;;;;;22.54;48.20;92134.88;5063328;28;7247;-57
2024/03/28 08:49:01;;;;;;;;;;;;;;;22.48;48.41;92132.31;5048655;28;6995;-58
2024/03/28 08:51:28;;;;;;;;;;;;;;;22.53;48.16;92147.84;5067802;28;7178;-57
2024/03/28 08:53:53;;;;;;;;;;;;;;;22.53;48.11;92152.59;5047681;28;6911;-58
2024/03/28 08:56:31;;;;;;;;;;;;;;;22.54;47.90;92154.03;5066904;28;9035;-58
2024/03/28 08:59:00;;;;;;;;;;;;;;;22.54;48.35;92162.28;5068492;28;8613;-58
2024/03/28 09:01:27;;;;;;;;;;;;;;;22.56;48.53;92175.41;5062564;28;7035;-58
2024/03/28 09:03:53;;;;;;;;;;;;;;;22.58;48.46;92175.59;5064079;28;6994;-58
2024/03/28 09:06:20;;;;;;;;;;;;;;;22.55;48.74;92173.97;5064236;28;7401;-57
2024/03/28 09:08:48;;;;;;;;;;;;;;;22.58;48.47;92175.59;5060307;28;7032;-58
2024/03/28 09:11:15;;;;;;;;;;;;;;;22.52;48.43;92156.59;5053594;28;7275;-57
2024/03/28 09:13:42;;;;;;;;;;;;;;;22.51;48.31;92168.81;5066880;28;8802;-57
2024/03/28 09:16:16;;;;;;;;;;;;;;;22.57;48.65;92172.16;5068049;28;7064;-58
2024/03/28 09:18:46;;;;;;;;;;;;;;;22.60;48.33;92173.81;5063751;28;7419;-56
2024/03/28 09:21:12;;;;;;;;;;;;;;;22.56;48.61;92159.72;5045818;28;9094;-57
2024/03/28 09:23:38;;;;;;;;;;;;;;;22.60;48.53;92154.63;5055247;28;7023;-57
2024/03/28 09:26:04;;;;;;;;;;;;;;;22.59;48.59;92152.41;5055253;28;7910;-56
2024/03/28 09:28:34;;;;;;;;;;;;;;;22.63;48.88;92145.34;5059504;28;9430;-56
2024/03/28 09:31:02;;;;;;;;;;;;;;;22.58;49.09;92134.50;5063946;28;7292;-57
2024/03/28 09:33:28;;;;;;;;;;;;;;;22.64;48.66;92174.19;5067367;28;7296;-57
2024/03/28 09:36:01;;;;;;;;;;;;;;;22.61;48.71;92163.59;5068125;28;9282;-57
2024/03/28 09:38:28;;;;;;;;;;;;;;;22.62;48.77;92165.78;5061161;28;9164;-57
2024/03/28 09:41:28;;;;;;;;;;;;;;;22.66;49.12;92170.91;5070813;28;7449;-57
2024/03/28 09:44:01;;;;;;;;;;;;;;;22.60;48.71;92157.38;4989442;28;7587;-56
2024/03/28 09:46:36;;;;;;;;;;;;;;;22.64;48.89;92154.28;4974550;28;9267;-56
2024/03/28 09:49:23;;;;;;;;;;;;;;;22.67;48.48;92166.88;4980850;28;8447;-57
2024/03/28 09:52:23;;;;;;;;;;;;;;;22.67;48.69;92162.16;4974997;28;7220;-56
2024/03/28 09:55:11;;;;;;;;;;;;;;;22.61;48.50;92155.38;4986595;28;6998;-57
2024/03/28 09:58:01;;;;;;;;;;;;;;;22.65;48.57;92175.66;4989037;28;7035;-57
2024/03/28 10:00:43;;;;;;;;;;;;;;;22.60;48.05;92173.81;4985183;28;7057;-56
2024/03/28 10:03:35;;;;;;;;;;;;;;;22.66;48.75;92184.63;4992060;28;7079;-57
2024/03/28 10:06:01;;;;;;;;;;;;;;;22.65;48.29;92189.38;4961502;28;9021;-57
2024/03/28 10:08:28;;;;;;;;;;;;;;;22.63;48.66;92197.41;4985383;28;7081;-56
2024/03/28 10:10:56;;;;;;;;;;;;;;;22.54;48.68;92173.22;4977768;28;8269;-56
2024/03/28 10:13:39;;;;;;;;;;;;;;;22.64;48.43;92187.16;4978712;28;9515;-57
2024/03/28 10:16:18;;;;;;;;;;;;;;;22.65;48.59;92196.84;4966270;28;8453;-57
2024/03/28 10:19:13;;;;;;;;;;;;;;;22.65;48.35;92208.53;4988617;28;9486;-57
2024/03/28 10:21:40;;;;;;;;;;;;;;;22.66;48.23;92204.53;5040959;28;7351;-56
2024/03/28 10:24:28;;;;;;;;;;;;;;;22.68;48.46;92210.19;5054228;28;7177;-56
2024/03/28 10:27:43;;;;;;;;;;;;;;;22.69;48.28;92197.22;5066429;28;8605;-57
2024/03/28 10:30:26;;;;;;;;;;;;;;;22.61;48.37;92194.47;4993271;28;9454;-57
2024/03/28 10:33:11;;;;;;;;;;;;;;;22.72;48.11;92207.09;4998083;28;7645;-56
2024/03/28 10:35:57;;;;;;;;;;;;;;;22.71;48.33;92206.34;4987147;28;7217;-57
2024/03/28 10:38:24;;;;;;;;;;;;;;;22.66;48.27;92199.06;4995103;28;8915;-57
2024/03/28 10:41:03;;;;;;;;;;;;;;;22.72;48.23;92202.34;4998168;28;9017;-62
2024/03/28 10:43:33;;;;;;;;;;;;;;;22.70;48.22;92204.16;4999527;28;7491;-63
2024/03/28 10:46:29;;;;;;;;;;;;;;;22.76;48.34;92212.94;5010645;28;9023;-63
2024/03/28 10:49:05;;;;;;;;;;;;;;;22.77;48.01;92211.69;4935803;28;7056;-63
2024/03/28 10:51:31;;;;;;;;;;;;;;;22.79;47.74;92228.31;4949790;28;8202;-62
2024/03/28 10:54:12;;;;;;;;;;;;;;;22.73;47.98;92217.50;4942730;28;9013;-63
2024/03/28 10:56:41;;;;;;;;;;;;;;;22.80;47.81;92216.06;4930964;28;7619;-63
2024/03/28 10:59:09;;;;;;;;;;;;;;;22.76;47.93;92224.66;4952166;28;7692;-63
2024/03/28 11:01:54;;;;;;;;;;;;;;;22.75;47.90;92217.69;4935256;28;7292;-62
2024/03/28 11:04:25;;;;;;;;;;;;;;;22.80;47.91;92224.28;4927513;28;8011;-63
2024/03/28 11:06:54;;;;;;;;;;;;;;;22.82;47.50;92232.69;4959853;28;7129;-63
2024/03/28 11:09:25;;;;;;;;;;;;;;;22.81;47.81;92226.50;4981613;28;7054;-63
2024/03/28 11:12:06;;;;;;;;;;;;;;;22.83;48.13;92225.94;4970920;28;7210;-63
2024/03/28 11:14:58;;;;;;;;;;;;;;;22.78;48.00;92219.34;4963651;28;7200;-63
2024/03/28 11:17:46;;;;;;;;;;;;;;;22.82;47.84;92233.44;4991558;28;7213;-63
2024/03/28 11:20:21;;;;;;;;;;;;;;;22.77;47.85;92228.13;4988921;28;7023;-63
2024/03/28 11:22:48;;;;;;;;;;;;;;;22.84;47.53;92241.09;4979266;28;7615;-62
2024/03/28 11:25:34;;;;;;;;;;;;;;;22.82;47.75;92233.44;5015714;28;7089;-63
2024/03/28 11:28:16;;;;;;;;;;;;;;;22.80;47.63;92251.69;5047562;28;8755;-62
2024/03/28 11:31:23;;;;;;;;;;;;;;;22.86;47.56;92261.22;5055266;28;7052;-63
2024/03/28 11:34:27;;;;;;;;;;;;;;;22.88;47.85;92242.22;5053541;28;9433;-63
2024/03/28 11:36:58;;;;;;;;;;;;;;;22.87;47.58;92251.72;4956005;28;7252;-63
2024/03/28 11:39:31;;;;;;;;;;;;;;;22.83;47.47;92248.63;4956405;28;8996;-63
2024/03/28 11:42:20;;;;;;;;;;;;;;;22.86;47.49;92247.50;4973206;28;9493;-63
2024/03/28 11:45:11;;;;;;;;;;;;;;;22.85;47.83;92257.03;4970259;28;6978;-63
2024/03/28 11:47:39;;;;;;;;;;;;;;;22.90;47.47;92263.63;4949780;28;7042;-63
2024/03/28 11:50:06;;;;;;;;;;;;;;;22.89;47.96;92253.91;4971568;28;9021;-63
2024/03/28 11:53:03;;;;;;;;;;;;;;;23.00;47.70;92267.28;4971555;28;7038;-68
2024/03/28 11:55:48;;;;;;;;;;;;;;;23.06;47.84;92270.59;4971731;28;6966;-68
2024/03/28 11:58:45;;;;;;;;;;;;;;;23.12;48.08;92271.16;4948346;28;7866;-69
2024/03/28 12:01:11;;;;;;;;;;;;;;;23.19;46.21;92271.19;4925794;29;9761;-69
2024/03/28 12:03:39;;;;;;;;;;;;;;;23.30;44.37;92267.34;4925920;29;7185;-68
2024/03/28 12:06:07;;;;;;;;;;;;;;;23.39;45.65;92272.34;4911997;29;7042;-69
2024/03/28 12:08:44;;;;;;;;;;;;;;;23.47;46.11;92269.63;4915870;29;8763;-69
2024/03/28 12:11:14;;;;;;;;;;;;;;;23.57;45.49;92282.25;4931881;29;7538;-69
2024/03/28 12:13:41;;;;;;;;;;;;;;;23.68;45.19;92281.16;4976032;28;7026;-69
2024/03/28 12:16:23;;;;;;;;;;;;;;;23.84;45.16;92283.34;4970621;28;7195;-69
2024/03/28 12:19:24;;;;;;;;;;;;;;;24.01;44.85;92290.28;4979919;28;7111;-69
2024/03/28 12:21:50;;;;;;;;;;;;;;;24.11;45.09;92305.69;4976291;28;7094;-69
2024/03/28 12:24:29;;;;;;;;;;;;;;;24.17;44.25;92295.25;4978401;28;7325;-70
2024/03/28 12:27:00;;;;;;;;;;;;;;;24.28;44.65;92302.38;4994020;28;8069;-69
2024/03/28 12:29:42;;;;;;;;;;;;;;;24.28;44.02;92308.59;4986653;28;7216;-70
2024/03/28 12:32:08;;;;;;;;;;;;;;;24.37;44.37;92315.53;4978614;28;7189;-70
2024/03/28 12:34:36;;;;;;;;;;;;;;;24.43;44.38;92316.06;4992737;28;7303;-70
2024/03/28 12:37:07;;;;;;;;;;;;;;;24.44;43.76;92323.78;5011837;28;7460;-70
2024/03/28 12:39:33;;;;;;;;;;;;;;;24.48;43.67;92326.16;5068549;28;7308;-72
2024/03/28 12:42:38;;;;;;;;;;;;;;;24.48;43.90;92323.41;5074032;28;7123;-70
2024/03/28 12:45:26;;;;;;;;;;;;;;;24.46;44.10;92318.47;5007877;28;9339;-71
2024/03/28 12:48:05;;;;;;;;;;;;;;;24.50;43.60;92329.06;5009190;28;7295;-71
2024/03/28 12:50:45;;;;;;;;;;;;;;;24.54;43.36;92337.66;4987637;28;7255;-72
2024/03/28 12:53:26;;;;;;;;;;;;;;;24.50;43.31;92340.81;4997154;28;7195;-70
2024/03/28 12:55:53;;;;;;;;;;;;;;;24.55;43.19;92347.38;5008741;28;9194;-71
2024/03/28 12:58:29;;;;;;;;;;;;;;;24.56;43.80;92346.84;4988333;28;8703;-72
2024/03/28 13:01:20;;;;;;;;;;;;;;;24.58;44.44;92349.75;5003780;28;9153;-65
2024/03/28 13:04:16;;;;;;;;;;;;;;;24.59;44.36;92351.22;5009776;28;7156;-65
2024/03/28 13:06:44;;;;;;;;;;;;;;;24.59;43.94;92356.00;4993574;28;7297;-64
2024/03/28 13:09:09;;;;;;;;;;;;;;;24.53;43.73;92344.47;4993428;28;7016;-65
2024/03/28 13:11:55;;;;;;;;;;;;;;;24.59;44.00;92359.47;4994157;28;8183;-64
2024/03/28 13:14:23;;;;;;;;;;;;;;;24.58;44.13;92360.00;4993979;28;7256;-64
2024/03/28 13:17:07;;;;;;;;;;;;;;;24.53;43.27;92353.41;4993217;28;6983;-64
2024/03/28 13:19:37;;;;;;;;;;;;;;;24.54;43.44;92343.16;5010604;28;9169;-64
2024/03/28 13:22:05;;;;;;;;;;;;;;;24.60;43.62;92349.19;5010022;28;7237;-64
2024/03/28 13:24:32;;;;;;;;;;;;;;;24.61;44.13;92358.91;4998110;28;7272;-64
2024/03/28 13:27:23;;;;;;;;;;;;;;;24.63;44.19;92364.59;5009658;28;7028;-64
2024/03/28 13:30:28;;;;;;;;;;;;;;;24.63;43.33;92359.84;5031773;28;6941;-64
2024/03/28 13:33:18;;;;;;;;;;;;;;;24.66;43.39;92358.72;4931765;28;7419;-64
2024/03/28 13:35:53;;;;;;;;;;;;;;;24.68;43.41;92371.91;4953391;28;7886;-64
2024/03/28 13:38:57;;;;;;;;;;;;;;;24.69;43.66;92371.34;4935403;28;9418;-64
2024/03/28 13:41:42;;;;;;;;;;;;;;;24.70;43.95;92377.59;4960605;28;7043;-64
2024/03/28 13:44:37;;;;;;;;;;;;;;;24.71;44.13;92371.53;4921345;29;7379;-64
2024/03/28 13:47:13;;;;;;;;;;;;;;;24.67;43.80;92373.94;4932165;28;7031;-64
2024/03/28 13:49:59;;;;;;;;;;;;;;;24.75;43.76;92373.22;4935714;28;9127;-64